Bodega Marine Reserve, California Weather observations

Data are for 10 minute period ending at time listed.
 Day   Time   Solar   Ave.   Ave.  Ave.  Vector  Max.   Baro.   Total    
  of    of     Rad.   Air    Rel.  Wind   Wind   Wind  Press.  Precip.   
Year   Day            Temp.  Hum.  Speed  Dir.   Gust                    
2014   (PST)  Kw/m2    F      %     mph   deg.    mph    mb.     in.     
-------------------------------------------------------------------------
 352   12:10   0.21   55.9    87    8.7    81    12.6   1018.0    0.00 
 352   12:20   0.21   56.0    87    9.6    84    12.7   1017.6    0.00 
 352   12:30   0.42   56.7    86   11.1    85    14.1   1017.6    0.00 
 352   12:40   0.28   56.9    85   11.2    87    14.2   1017.3    0.00 
 352   12:50   0.28   57.0    86   11.5    91    15.1   1017.3    0.00 
 352   13:00   0.18   56.9    86   10.3    85    14.5   1017.3    0.00 
 352   13:10   0.13   56.9    86    8.5    86    11.7   1017.3    0.00 
 352   13:20   0.14   56.8    86   10.6    89    14.0   1017.3    0.00 
 352   13:30   0.14   56.7    86   11.4    92    14.2   1016.9    0.00 
 352   13:40   0.11   56.4    87   11.3    83    14.6   1016.9    0.00 
 352   13:50   0.06   56.1    88    8.4    83    11.8   1016.9    0.00 
 352   14:00   0.08   55.9    90    8.5    84    11.7   1016.9    0.00 
 352   14:10   0.08   56.0    90    6.0    87     9.6   1016.9    0.00 
 352   14:20   0.07   56.1    89    7.1    72    10.1   1016.9    0.00 
 352   14:30   0.04   56.1    89    6.2    70     9.3   1016.9    0.00 
 352   14:40   0.03   56.0    90    7.2    73    11.0   1016.9    0.00 
 352   14:50   0.02   56.1    90    7.5    83    11.0   1016.9    0.00 
 352   15:00   0.04   56.2    90    5.7    92     8.8   1016.9    0.00 
 352   15:10   0.06   56.5    90    4.5   114     9.5   1016.9    0.00 
 352   15:20   0.06   56.8    89    7.1    97    10.8   1016.9    0.00 
 352   15:30   0.05   56.9    89    6.1   102    10.5   1016.9    0.00 
 352   15:40   0.04   56.7    88    7.5    91    10.3   1016.9    0.00 
 352   15:50   0.04   56.7    88    7.7   100    11.8   1016.9    0.00 
 352   16:00   0.03   56.7    88    8.0    94    12.1   1016.9    0.00 
 352   16:10   0.02   56.5    88    8.8    92    11.0   1016.9    0.00 
 352   16:20   0.02   56.4    88    8.3    95    10.7   1016.9    0.00 
 352   16:30   0.01   56.3    88    7.5    97    12.4   1016.9    0.00 
 352   16:40   0.00   56.3    88    5.4   102     8.6   1016.9    0.00 
 352   16:50   0.00   56.1    89    4.9   100     7.9   1016.9    0.00 
 352   17:00   0.00   55.9    89    5.0    94     8.0   1016.9    0.00 
 352   17:10   0.00   55.7    90    7.1    76     9.7   1016.9    0.00 
 352   17:20   0.00   55.5    90    7.7    82    11.3   1016.9    0.00 
 352   17:30   0.00   55.3    90    7.9    80    10.5   1016.9    0.00 
 352   17:40   0.00   55.1    90    8.3    84    11.4   1016.9    0.00 
 352   17:50   0.00   54.7    90    7.9    86    12.1   1016.9    0.00 
 352   18:00   0.00   54.5    90    7.2    83    10.4   1017.3    0.00 
 352   18:10   0.00   54.4    90    8.4    85    11.3   1016.9    0.00 
 352   18:20   0.00   54.2    90    9.5    86    12.7   1016.9    0.00 
 352   18:30   0.00   54.2    91    7.5    90     9.9   1017.3    0.00 
 352   18:40   0.00   54.1    90    7.5    81    10.2   1017.3    0.00 
 352   18:50   0.00   53.9    91    8.5    87    11.0   1017.3    0.00 
 352   19:00   0.00   53.8    91    9.0    90    13.0   1017.3    0.00 
 352   19:10   0.00   53.7    91    9.7    89    12.3   1016.9    0.00 
 352   19:20   0.00   53.7    91    9.6    94    13.7   1016.9    0.00 
 352   19:30   0.00   53.9    90    8.7    97    11.9   1016.9    0.00 
 352   19:40   0.00   53.8    90    8.6    92    13.4   1017.3    0.00 
 352   19:50   0.00   53.8    90    5.5    94     8.6   1017.6    0.00 
 352   20:00   0.00   53.9    89    6.1    89    10.0   1017.6    0.00 
 352   20:10   0.00   53.8    90    7.8    92    12.2   1017.3    0.00 
 352   20:20   0.00   53.8    90    7.8    93    10.4   1017.3    0.00 
 352   20:30   0.00   53.7    90    5.9    93     8.4   1017.6    0.00 
 352   20:40   0.00   54.0    90    7.0    91     9.4   1017.6    0.00 
 352   20:50   0.00   53.8    90    8.7    92    11.8   1017.6    0.00 
 352   21:00   0.00   53.6    90    6.7   100    11.2   1017.6    0.00 
 352   21:10   0.00   54.5    90    5.6   100    10.2   1017.6    0.00 
 352   21:20   0.00   55.0    90    5.3   105    10.4   1017.3    0.00 
 352   21:30   0.00   54.6    89    5.3    98     8.3   1017.6    0.00 
 352   21:40   0.00   54.7    90    3.4   115     8.0   1017.6    0.00 
 352   21:50   0.00   55.2    89    4.5   115    10.3   1017.6    0.00 
 352   22:00   0.00   55.1    88    4.9   120     8.8   1017.3    0.00 
 352   22:10   0.00   55.3    88    5.1   125     9.1   1017.3    0.00 
 352   22:20   0.00   55.2    89    5.9   125    11.0   1017.6    0.00 
 352   22:30   0.00   55.2    89    6.8   132    11.6   1017.6    0.01 
 352   22:40   0.00   54.8    90    6.2   125     9.3   1017.6    0.00 
 352   22:50   0.00   54.6    92    3.3   124     7.0   1017.6    0.01 
 352   23:00   0.00   54.9    92    3.5   146     6.5   1017.6    0.00 
 352   23:10   0.00   55.0    92    8.0   143    18.1   1017.6    0.01 
 352   23:20   0.00   55.1    90   11.3   163    19.3   1017.6    0.00 
 352   23:30   0.00   55.7    88   10.3   172    17.9   1017.6    0.00 
 352   23:40   0.00   56.0    89   10.9   182    17.2   1017.6    0.00 
 352   23:50   0.00   55.4    92   10.3   167    16.7   1017.3    0.01 
 353    0:00   0.00   55.7    93   10.4   172    15.7   1017.3    0.01 
 353    0:10   0.00   55.6    93   10.7   172    14.5   1017.3    0.00 
 353    0:20   0.00   55.7    94   11.3   167    17.3   1017.3    0.00 
 353    0:30   0.00   55.7    94   11.4   170    16.4   1017.3    0.01 
 353    0:40   0.00   55.7    94   11.1   169    15.8   1016.9    0.01 
 353    0:50   0.00   55.5    94   12.2   167    19.0   1016.9    0.01 
 353    1:00   0.00   55.6    94   12.7   163    19.2   1016.6    0.00 
 353    1:10   0.00   55.9    94   11.2   168    16.7   1016.6    0.01 
 353    1:20   0.00   56.0    94   12.5   174    17.7   1016.9    0.01 
 353    1:30   0.00   56.0    95   13.4   170    18.1   1016.6    0.01 
 353    1:40   0.00   56.2    95   12.2   174    19.1   1016.6    0.00 
 353    1:50   0.00   56.1    95   11.8   171    16.7   1016.6    0.01 
 353    2:00   0.00   56.1    95   11.7   166    20.0   1016.3    0.00 
 353    2:10   0.00   56.0    95   14.6   166    21.6   1016.6    0.01 
 353    2:20   0.00   55.9    95   15.6   164    22.4   1016.6    0.00 
 353    2:30   0.00   55.8    95   14.5   164    22.3   1016.6    0.00 
 353    2:40   0.00   55.9    95   13.0   162    19.0   1016.6    0.00 
 353    2:50   0.00   56.0    95   12.2   162    19.7   1016.6    0.00 
 353    3:00   0.00   56.1    95   14.2   161    23.5   1016.6    0.00 
 353    3:10   0.00   56.3    95   14.4   160    22.9   1016.3    0.01 
 353    3:20   0.00   56.4    95   15.7   156    22.2   1015.9    0.00 
 353    3:30   0.00   56.5    95   17.2   154    24.6   1015.9    0.00 
 353    3:40   0.00   56.7    95   13.5   160    19.3   1015.9    0.00 
 353    3:50   0.00   57.0    95   15.0   163    21.9   1015.6    0.00 
 353    4:00   0.00   57.2    95   13.9   164    19.6   1015.6    0.01 
 353    4:10   0.00   57.4    95   15.2   165    22.4   1015.6    0.00 
 353    4:20   0.00   57.5    95   14.9   164    21.8   1015.6    0.00 
 353    4:30   0.00   57.6    95   15.0   164    21.3   1015.2    0.00 
 353    4:40   0.00   57.6    96   14.1   169    22.1   1015.2    0.00 
 353    4:50   0.00   57.7    96   13.6   168    21.3   1015.2    0.01 
 353    5:00   0.00   57.7    96   13.8   164    21.2   1015.2    0.01 
 353    5:10   0.00   57.7    96   14.0   167    22.9   1015.2    0.02 
 353    5:20   0.00   57.8    96   13.0   173    22.6   1014.9    0.01 
 353    5:30   0.00   57.8    96   13.4   170    20.3   1014.9    0.01 
 353    5:40   0.00   57.8    96   13.6   172    19.5   1014.9    0.00 
 353    5:50   0.00   57.8    96   14.1   174    21.6   1014.9    0.00 
 353    6:00   0.00   57.8    96   13.0   167    21.3   1014.9    0.00 
 353    6:10   0.00   57.8    96   10.9   175    17.8   1014.9    0.01 
 353    6:20   0.00   57.9    96   11.0   169    18.7   1014.9    0.01 
 353    6:30   0.00   58.0    96    7.8   190    14.1   1015.2    0.01 
 353    6:40   0.00   58.5    96    8.8   225    14.9   1015.6    0.03 
 353    6:50   0.00   58.8    96   10.2   236    14.8   1015.6    0.01 
 353    7:00   0.00   58.7    96    8.1   234    12.9   1015.9    0.02 
 353    7:10   0.00   58.4    95   11.9   270    22.7   1015.9    0.03 
 353    7:20   0.00   55.8    95   14.0   287    20.0   1016.6    0.11 
 353    7:30   0.00   54.7    95   11.7   319    16.7   1016.3    0.07 
 353    7:40   0.00   54.6    95    9.8   331    15.2   1016.3    0.04 
 353    7:50   0.00   54.2    95    7.5   346    11.8   1015.9    0.02 
 353    8:00   0.00   54.2    95    6.7   308    10.1   1015.9    0.00 
 353    8:10   0.00   54.1    95    5.3   288     7.1   1015.9    0.00 
 353    8:20   0.01   54.3    95    5.5   286     7.8   1016.3    0.00 
 353    8:30   0.01   54.4    95    4.5   289     6.3   1016.3    0.00 
 353    8:40   0.02   54.6    95    4.0   303     5.8   1016.6    0.00 
 353    8:50   0.03   54.7    95    3.2   336     5.8   1016.6    0.00 
 353    9:00   0.02   54.9    95    2.9    74     3.9   1016.6    0.00 
 353    9:10   0.02   54.9    95    3.8    98     5.8   1016.6    0.00 
 353    9:20   0.03   55.1    95    2.7    89     4.2   1016.6    0.00 
 353    9:30   0.03   55.2    95    2.7   122     4.6   1016.9    0.00 
 353    9:40   0.03   55.3    94    3.4   165     4.7   1017.3    0.00 
 353    9:50   0.04   55.5    94    1.9   157     3.3   1017.3    0.00 
 353   10:00   0.07   55.9    94    3.1   156     5.5   1017.3    0.00 
 353   10:10   0.08   56.2    94    5.2   143     7.2   1017.3    0.00 
 353   10:20   0.06   56.2    94    2.9   153     5.5   1017.6    0.00 
 353   10:30   0.07   56.3    93    2.9   142     4.6   1017.6    0.00 
 353   10:40   0.09   56.6    93    4.1   131     7.4   1017.3    0.00 
 353   10:50   0.09   56.6    92    3.2   116     5.8   1017.3    0.00 
 353   11:00   0.07   56.8    92    2.4   131     5.3   1017.3    0.00 
 353   11:10   0.08   56.8    91    4.6   142     7.9   1017.3    0.00 
 353   11:20   0.11   56.6    91    6.7   140     8.6   1017.3    0.00 
 353   11:30   0.11   56.5    91    4.6   129     6.4   1017.3    0.00 
 353   11:40   0.15   56.4    91    4.4   130     6.4   1017.3    0.00 
 353   11:50   0.12   56.6    90    3.4   137     5.2   1017.3    0.00 
 353   12:00   0.12   56.7    89    2.9   129     4.5   1017.3    0.00 

Return to Bodega Marine Reserve graphs page.


Western Regional Climate Center,wrcc@dri.edu